Time;durP1;ratioP1;P1;durP2;ratioP2;P2;SDS_P1;SDS_P2;PMS_P1;PMS_P2;Temp;Humidity;BMP_temperature;BMP_pressure;BME280_temperature;BME280_humidity;BME280_pressure;Samples;Min_cycle;Max_cycle;Signal;HPM_P1;HPM_P2
2022/07/23 00:01:41;;;;;;;;;;;;;;;17.58;100.00;101199.91;4925858;29;20098;-82
2022/07/23 00:04:07;;;;;;;;;;;;;;;17.63;100.00;101205.50;4926095;29;19923;-83
2022/07/23 00:06:32;;;;;;;;;;;;;;;17.63;100.00;101205.50;4926508;29;19907;-82
2022/07/23 00:08:58;;;;;;;;;;;;;;;17.67;100.00;101216.75;4927618;29;19954;-82
2022/07/23 00:21:44;;;;;;;;;;;;;;;17.36;100.00;101216.00;5737070;23;19931;-82
2022/07/23 00:26:44;;;;;;;;;;;;;;;17.38;100.00;101209.28;5869407;23;19922;-81
2022/07/23 00:52:26;;;;;;;;;;;;;;;16.43;100.00;101190.97;5313645;23;19911;-83
2022/07/23 00:54:52;;;;;;;;;;;;;;;16.46;100.00;101195.13;4922420;29;19926;-83
2022/07/23 00:57:20;;;;;;;;;;;;;;;16.35;100.00;101193.97;4923842;29;19908;-82
2022/07/23 00:59:45;;;;;;;;;;;;;;;16.28;100.00;101186.97;4941558;29;19907;-82
2022/07/23 01:02:10;;;;;;;;;;;;;;;16.23;100.00;101178.69;4926022;29;19939;-82
2022/07/23 01:04:36;;;;;;;;;;;;;;;16.17;100.00;101192.09;4997025;23;19911;-82
2022/07/23 01:07:01;;;;;;;;;;;;;;;16.12;100.00;101191.13;4890920;29;19908;-84
2022/07/23 01:09:28;;;;;;;;;;;;;;;16.11;100.00;101194.91;4901902;29;19967;-83
2022/07/23 01:11:58;;;;;;;;;;;;;;;16.16;100.00;101204.03;4906492;29;19907;-83
2022/07/23 01:14:23;;;;;;;;;;;;;;;16.20;100.00;101209.84;4910996;29;19923;-83
2022/07/23 01:16:50;;;;;;;;;;;;;;;16.24;100.00;101204.78;4925336;29;19974;-83
2022/07/23 01:19:16;;;;;;;;;;;;;;;16.23;100.00;101212.09;4925058;29;19907;-82
2022/07/23 01:26:51;;;;;;;;;;;;;;;16.07;100.00;101210.81;5680911;23;19936;-82
2022/07/23 01:29:19;;;;;;;;;;;;;;;16.07;100.00;101210.81;4941733;29;19934;-83
2022/07/23 01:31:44;;;;;;;;;;;;;;;15.90;100.00;101209.75;5264639;23;19927;-83
2022/07/23 01:34:10;;;;;;;;;;;;;;;15.90;100.00;101202.44;4960942;29;19945;-83
2022/07/23 01:36:36;;;;;;;;;;;;;;;15.96;100.00;101206.13;4955874;29;19914;-83
2022/07/23 02:07:40;;;;;;;;;;;;;;;15.70;100.00;101208.06;4990084;23;19911;31
2022/07/23 02:10:06;;;;;;;;;;;;;;;15.68;100.00;101210.16;4901972;29;19916;-83
2022/07/23 02:12:32;;;;;;;;;;;;;;;15.70;100.00;101209.94;4888685;29;19916;-83
2022/07/23 02:15:12;;;;;;;;;;;;;;;15.66;100.00;101198.72;4937876;23;19995;-82
2022/07/23 02:20:26;;;;;;;;;;;;;;;15.59;100.00;101195.16;5262609;23;19936;-83
2022/07/23 02:22:52;;;;;;;;;;;;;;;15.59;100.00;101194.34;4889816;29;19924;-82
2022/07/23 02:25:18;;;;;;;;;;;;;;;15.69;100.00;101200.13;4888834;29;19927;-82
2022/07/23 02:27:43;;;;;;;;;;;;;;;15.62;100.00;101202.88;4890385;29;20004;-82
2022/07/23 02:30:09;;;;;;;;;;;;;;;15.58;100.00;101209.78;4896899;29;19949;-82
2022/07/23 02:32:36;;;;;;;;;;;;;;;15.55;100.00;101215.66;4889513;29;19955;-82
2022/07/23 02:35:03;;;;;;;;;;;;;;;15.54;100.00;101216.72;4889562;29;19908;-82
2022/07/23 02:37:28;;;;;;;;;;;;;;;15.53;100.00;101215.06;4892854;29;19965;-82
2022/07/23 02:39:56;;;;;;;;;;;;;;;15.19;100.00;101171.09;4902045;29;19907;-81
2022/07/23 02:42:23;;;;;;;;;;;;;;;15.49;100.00;101211.13;4881113;29;19951;-82
2022/07/23 02:44:50;;;;;;;;;;;;;;;15.60;100.00;101221.28;4897736;29;19949;-81
2022/07/23 02:47:15;;;;;;;;;;;;;;;15.56;100.00;101219.19;4888447;29;19911;-82
2022/07/23 02:49:41;;;;;;;;;;;;;;;15.55;100.00;101220.25;4918364;29;19920;-83
2022/07/23 02:52:06;;;;;;;;;;;;;;;15.58;100.00;101208.97;4924451;29;19911;-82
2022/07/23 02:54:32;;;;;;;;;;;;;;;15.60;100.00;101210.41;5414939;23;19927;-82
2022/07/23 02:56:57;;;;;;;;;;;;;;;15.51;100.00;101219.88;4924254;29;19912;-83
2022/07/23 03:01:58;;;;;;;;;;;;;;;15.50;100.00;101208.22;5413190;23;19914;-82
2022/07/23 03:04:23;;;;;;;;;;;;;;;15.58;100.00;101212.50;4965168;29;19977;-82
2022/07/23 03:06:48;;;;;;;;;;;;;;;15.57;100.00;101221.72;4958117;29;19907;-82
2022/07/23 03:09:14;;;;;;;;;;;;;;;15.52;100.00;101227.78;4942817;29;19923;-82
2022/07/23 03:11:39;;;;;;;;;;;;;;;15.59;100.00;101227.72;4945698;29;19907;-83
2022/07/23 03:14:05;;;;;;;;;;;;;;;15.60;100.00;101225.88;4944537;29;19930;-82
2022/07/23 03:16:31;;;;;;;;;;;;;;;15.63;100.00;101230.81;4946223;29;19942;-82
2022/07/23 03:18:56;;;;;;;;;;;;;;;15.63;100.00;101228.09;4961069;29;19938;-82
2022/07/23 03:21:21;;;;;;;;;;;;;;;15.60;100.00;101237.53;4944833;29;19911;-82
2022/07/23 03:23:47;;;;;;;;;;;;;;;15.59;100.00;101237.75;4961675;29;19923;-82
2022/07/23 03:26:12;;;;;;;;;;;;;;;15.63;100.00;101244.38;4969364;29;19919;-83
2022/07/23 03:28:38;;;;;;;;;;;;;;;15.65;100.00;101234.97;4966689;29;19923;-82
2022/07/23 03:31:03;;;;;;;;;;;;;;;15.72;100.00;101241.19;4961107;29;19959;-82
2022/07/23 03:33:29;;;;;;;;;;;;;;;15.71;100.00;101236.84;4959512;29;19972;-82
2022/07/23 03:35:54;;;;;;;;;;;;;;;15.74;100.00;101236.41;4960911;29;19919;-83
2022/07/23 03:38:20;;;;;;;;;;;;;;;15.72;100.00;101224.09;4944768;29;19910;-82
2022/07/23 03:40:46;;;;;;;;;;;;;;;15.69;100.00;101232.69;4945025;29;19921;-82
2022/07/23 03:43:11;;;;;;;;;;;;;;;15.78;100.00;101230.53;4944430;29;19923;-82
2022/07/23 03:45:36;;;;;;;;;;;;;;;15.79;100.00;101227.56;4944578;29;19978;-83
2022/07/23 03:48:02;;;;;;;;;;;;;;;15.78;100.00;101231.34;4961489;29;19923;-83
2022/07/23 03:50:27;;;;;;;;;;;;;;;15.78;100.00;101231.34;4980311;28;19907;-82
2022/07/23 03:52:53;;;;;;;;;;;;;;;15.79;100.00;101222.16;4962998;29;19919;-83
2022/07/23 03:55:19;;;;;;;;;;;;;;;15.82;100.00;101227.13;4952288;29;19919;-81
2022/07/23 03:57:44;;;;;;;;;;;;;;;15.91;100.00;101231.22;4960125;29;19965;-81
2022/07/23 04:02:55;;;;;;;;;;;;;;;15.91;100.00;101224.97;5098913;23;19923;-82
2022/07/23 04:05:20;;;;;;;;;;;;;;;15.95;100.00;101226.19;4934329;29;19919;-82
2022/07/23 04:07:45;;;;;;;;;;;;;;;16.03;100.00;101216.94;4959941;29;19958;-82
2022/07/23 04:10:11;;;;;;;;;;;;;;;16.03;100.00;101209.63;4944640;29;19914;-83
2022/07/23 04:12:36;;;;;;;;;;;;;;;16.02;100.00;101220.69;4961420;29;19934;-83
2022/07/23 04:15:02;;;;;;;;;;;;;;;16.00;100.00;101220.09;4929768;29;19919;-83
2022/07/23 04:17:28;;;;;;;;;;;;;;;16.05;100.00;101210.19;4925624;29;19911;-82
2022/07/23 04:19:53;;;;;;;;;;;;;;;16.09;100.00;101216.84;4941615;29;19963;-82
2022/07/23 04:22:18;;;;;;;;;;;;;;;16.17;100.00;101211.13;4927679;29;19907;-82
2022/07/23 04:24:44;;;;;;;;;;;;;;;16.21;100.00;101209.59;4910618;29;19953;-82
2022/07/23 04:27:09;;;;;;;;;;;;;;;16.16;100.00;101208.63;4942401;29;19931;-82
2022/07/23 04:29:35;;;;;;;;;;;;;;;16.26;100.00;101205.38;5596803;23;19922;-83
2022/07/23 04:32:01;;;;;;;;;;;;;;;16.30;100.00;101207.41;4942431;29;19927;-82
2022/07/23 04:34:26;;;;;;;;;;;;;;;16.27;100.00;101207.88;4925438;29;19927;-82
2022/07/23 04:36:52;;;;;;;;;;;;;;;16.29;100.00;101200.34;4926433;29;19923;-82
2022/07/23 04:39:18;;;;;;;;;;;;;;;16.40;100.00;101198.75;4926079;29;19923;-79
2022/07/23 04:41:43;;;;;;;;;;;;;;;16.44;100.00;101210.78;4928343;29;19991;-82
2022/07/23 04:44:09;;;;;;;;;;;;;;;16.58;100.00;101209.56;4939796;29;19919;-82
2022/07/23 04:46:34;;;;;;;;;;;;;;;16.51;100.00;101203.38;4925252;29;19908;-82
2022/07/23 04:48:59;;;;;;;;;;;;;;;16.45;100.00;101205.13;4941962;29;19903;-82
2022/07/23 04:51:25;;;;;;;;;;;;;;;16.35;100.00;101199.41;4925568;29;19929;-83
2022/07/23 04:53:51;;;;;;;;;;;;;;;16.34;100.00;101203.19;4941418;29;19931;-83
2022/07/23 04:56:16;;;;;;;;;;;;;;;16.47;100.00;101198.66;4925322;29;19956;-83
2022/07/23 04:58:41;;;;;;;;;;;;;;;16.44;100.00;101195.31;4941488;29;19915;-82
2022/07/23 05:01:08;;;;;;;;;;;;;;;16.49;100.00;101191.94;4927133;29;19958;-82
2022/07/23 05:03:35;;;;;;;;;;;;;;;16.38;100.00;101193.53;4941884;29;19916;-82
2022/07/23 05:06:00;;;;;;;;;;;;;;;16.42;100.00;101193.88;4924453;29;19923;-83
2022/07/23 05:08:26;;;;;;;;;;;;;;;16.07;100.00;101134.81;4952126;28;20003;-82
2022/07/23 05:10:52;;;;;;;;;;;;;;;16.46;100.00;101184.25;4955634;29;19926;-82
2022/07/23 05:13:17;;;;;;;;;;;;;;;16.58;100.00;101187.00;4944197;29;19914;-83
2022/07/23 05:15:43;;;;;;;;;;;;;;;16.55;100.00;101177.41;4926904;28;19911;-84
2022/07/23 05:18:09;;;;;;;;;;;;;;;16.51;100.00;101175.41;4906535;29;19975;-83
2022/07/23 05:20:34;;;;;;;;;;;;;;;16.39;100.00;101180.75;4934761;29;19907;-84
2022/07/23 05:25:35;;;;;;;;;;;;;;;16.39;100.00;101187.03;5042558;23;19935;-81
2022/07/23 05:28:00;;;;;;;;;;;;;;;16.33;100.00;101184.41;4928992;29;19924;-80
2022/07/23 05:30:26;;;;;;;;;;;;;;;16.14;100.00;101192.56;4920009;29;19907;-80
2022/07/23 05:32:52;;;;;;;;;;;;;;;16.23;100.00;101201.25;4929039;29;19974;-81
2022/07/23 05:35:17;;;;;;;;;;;;;;;16.31;100.00;101202.81;4919334;29;19922;-81
2022/07/23 05:37:42;;;;;;;;;;;;;;;16.32;100.00;101199.84;4939805;29;19919;-83
2022/07/23 05:40:09;;;;;;;;;;;;;;;16.33;100.00;101206.97;4938590;29;19923;-82
2022/07/23 05:45:10;;;;;;;;;;;;;;;16.26;100.00;101200.78;5061441;23;19912;-84
2022/07/23 05:47:39;;;;;;;;;;;;;;;16.23;100.00;101195.00;4904664;29;19951;-84
2022/07/23 05:50:05;;;;;;;;;;;;;;;16.28;100.00;101201.38;5144541;23;20799;-82
2022/07/23 05:52:30;;;;;;;;;;;;;;;16.23;100.00;101201.25;4920139;29;19912;-81
2022/07/23 06:00:06;;;;;;;;;;;;;;;16.33;100.00;101206.13;5095328;23;19911;-82
2022/07/23 06:02:33;;;;;;;;;;;;;;;16.28;100.00;101209.53;4917666;29;19946;-82
2022/07/23 06:04:58;;;;;;;;;;;;;;;16.35;100.00;101204.84;4904867;29;19931;-82
2022/07/23 06:07:24;;;;;;;;;;;;;;;16.28;100.00;101200.56;4917050;29;19932;-82
2022/07/23 06:09:49;;;;;;;;;;;;;;;16.34;100.00;101197.75;4902763;29;20016;-82
2022/07/23 06:12:15;;;;;;;;;;;;;;;16.30;100.00;101196.56;4902019;29;19971;-80
2022/07/23 06:14:40;;;;;;;;;;;;;;;16.40;100.00;101194.13;4892276;29;19920;-78
2022/07/23 06:17:06;;;;;;;;;;;;;;;16.49;100.00;101197.38;4892691;29;19989;-81
2022/07/23 06:19:31;;;;;;;;;;;;;;;16.50;100.00;101190.06;4914397;29;19916;-81
2022/07/23 06:21:56;;;;;;;;;;;;;;;16.47;100.00;101185.06;4918828;29;19924;-79
2022/07/23 06:45:03;;;;;;;;;;;;;;;16.75;100.00;101182.59;5123462;23;20074;-84
2022/07/23 06:52:34;;;;;;;;;;;;;;;16.85;100.00;101185.63;5336609;23;19964;-83
2022/07/23 06:54:59;;;;;;;;;;;;;;;16.90;100.00;101182.19;4909371;29;19946;-84
2022/07/23 06:57:25;;;;;;;;;;;;;;;16.94;100.00;101191.53;4915472;29;19979;-84
2022/07/23 07:07:36;;;;;;;;;;;;;;;17.06;100.00;101202.47;5446985;23;19927;-83
2022/07/23 07:10:02;;;;;;;;;;;;;;;16.97;100.00;101203.84;4954263;29;19958;-83
2022/07/23 07:12:28;;;;;;;;;;;;;;;16.91;100.00;101200.97;4945560;29;19914;-83
2022/07/23 07:32:59;;;;;;;;;;;;;;;16.97;100.00;101210.09;5707629;23;19935;-83
2022/07/23 07:35:25;;;;;;;;;;;;;;;17.02;100.00;101209.41;5783541;23;19925;-84
2022/07/23 07:53:22;;;;;;;;;;;;;;;17.44;100.00;101206.66;5017995;23;19936;-84
2022/07/23 07:55:47;;;;;;;;;;;;;;;17.48;100.00;101210.56;4961849;29;19930;-83
2022/07/23 08:05:58;;;;;;;;;;;;;;;17.56;100.00;101227.38;5648025;23;19931;-83
2022/07/23 08:23:55;;;;;;;;;;;;;;;17.77;100.00;101230.63;5928392;23;19918;-83
2022/07/23 08:26:21;;;;;;;;;;;;;;;17.58;100.00;101240.72;4944214;29;19966;-82
2022/07/23 08:28:47;;;;;;;;;;;;;;;17.86;100.00;101236.53;4961888;29;19934;-82
2022/07/23 09:57:21;;;;;;;;;;;;;;;17.78;100.00;101267.66;6022934;23;20019;31
2022/07/23 10:08:16;;;;;;;;;;;;;;;18.01;100.00;101272.28;5504296;23;19911;-83
2022/07/23 10:10:43;;;;;;;;;;;;;;;18.04;100.00;101283.53;4925478;29;19924;-83
2022/07/23 10:15:41;;;;;;;;;;;;;;;17.81;100.00;101278.91;4945368;29;19931;-83
2022/07/23 11:30:58;;;;;;;;;;;;;;;18.99;100.00;101282.28;4945278;23;19916;-84
2022/07/23 11:33:24;;;;;;;;;;;;;;;18.93;100.00;101279.72;4905967;29;19926;-83
2022/07/23 11:35:59;;;;;;;;;;;;;;;18.74;100.00;101282.63;4933005;29;19911;-83
2022/07/23 11:38:24;;;;;;;;;;;;;;;18.75;100.00;101273.38;4924812;29;19995;-83
2022/07/23 11:40:57;;;;;;;;;;;;;;;18.66;100.00;101285.69;4904027;29;19919;-83
2022/07/23 13:15:46;;;;;;;;;;;;;;;19.64;100.00;101275.56;5960690;23;21301;31
2022/07/23 13:18:12;;;;;;;;;;;;;;;19.39;100.00;101273.19;4866752;29;19913;-83
2022/07/23 13:28:23;;;;;;;;;;;;;;;19.33;100.00;101273.34;5378246;23;19943;-81
2022/07/23 13:48:54;;;;;;;;;;;;;;;20.25;100.00;101267.47;4831501;23;2570161;-83
2022/07/23 15:04:00;;;;;;;;;;;;;;;20.29;100.00;101289.66;5986281;23;20811;31
2022/07/23 15:06:25;;;;;;;;;;;;;;;20.16;100.00;101288.94;5764779;23;19986;-80
2022/07/23 15:50:05;;;;;;;;;;;;;;;20.11;100.00;101260.72;4882525;29;19919;-84
2022/07/23 16:18:24;;;;;;;;;;;;;;;19.38;100.00;101276.19;5703801;23;19935;-83
2022/07/23 16:41:31;;;;;;;;;;;;;;;19.25;100.00;101282.78;5952052;23;19918;-78
2022/07/23 18:01:30;;;;;;;;;;;;;;;19.07;100.00;101346.53;5975682;23;19956;-82
2022/07/23 19:26:40;;;;;;;;;;;;;;;17.64;100.00;101388.66;5694769;23;19918;-78
2022/07/23 19:29:05;;;;;;;;;;;;;;;17.67;100.00;101382.75;4938599;29;19912;-83
2022/07/23 19:31:30;;;;;;;;;;;;;;;17.66;100.00;101384.66;4927921;29;19908;-83
2022/07/23 19:33:56;;;;;;;;;;;;;;;17.68;100.00;101385.25;4927667;29;19907;-83
2022/07/23 19:36:21;;;;;;;;;;;;;;;17.72;100.00;101385.63;4926324;29;19923;-84
2022/07/23 19:38:47;;;;;;;;;;;;;;;17.72;100.00;101389.16;4926783;29;19915;-84
2022/07/23 19:41:12;;;;;;;;;;;;;;;17.75;100.00;101385.97;4927337;29;19986;-84
2022/07/23 19:43:39;;;;;;;;;;;;;;;17.68;100.00;101389.84;4941892;29;19919;-84
2022/07/23 20:01:36;;;;;;;;;;;;;;;17.44;100.00;101402.53;5945936;23;19948;-80
2022/07/23 20:14:23;;;;;;;;;;;;;;;17.55;100.00;101399.06;5135666;23;19923;-84
2022/07/23 21:25:56;;;;;;;;;;;;;;;17.34;100.00;101422.97;5984950;23;20198;31
2022/07/23 21:34:48;;;;;;;;;;;;;;;17.38;100.00;101434.22;5985341;23;19938;31
2022/07/23 21:37:14;;;;;;;;;;;;;;;17.40;100.00;101431.28;4867399;29;19921;-84
2022/07/23 21:39:39;;;;;;;;;;;;;;;17.42;100.00;101431.84;4868988;29;19932;-83
2022/07/23 21:42:06;;;;;;;;;;;;;;;17.45;100.00;101429.53;4869072;29;19924;-84
2022/07/23 22:07:48;;;;;;;;;;;;;;;17.52;100.00;101433.00;5024166;23;19931;-83
2022/07/23 22:10:14;;;;;;;;;;;;;;;17.56;100.00;101444.25;4929271;29;19911;-84
2022/07/23 22:30:46;;;;;;;;;;;;;;;17.39;100.00;101446.78;5738142;23;20144;-84
2022/07/23 22:38:22;;;;;;;;;;;;;;;17.33;100.00;101439.53;5850359;23;19898;-84
